Time;durP1;ratioP1;P1;durP2;ratioP2;P2;SDS_P1;SDS_P2;PMS_P1;PMS_P2;Temp;Humidity;BMP_temperature;BMP_pressure;BME280_temperature;BME280_humidity;BME280_pressure;Samples;Min_cycle;Max_cycle;Signal;HPM_P1;HPM_P2
2022/02/16 00:01:22;;;;;;;;;86.00;58.00;;;;;5.15;100.00;99533.22;6322407;20;3650218;-44
2022/02/16 00:03:53;;;;;;;;;93.33;69.33;;;;;5.12;100.00;99528.03;6290725;20;3662361;-45
2022/02/16 00:06:23;;;;;;;;;92.67;68.00;;;;;5.12;100.00;99528.03;6323792;20;3655825;-46
2022/02/16 00:08:55;;;;;;;;;93.00;68.67;;;;;4.89;100.00;99526.31;6292733;20;3658581;-44
2022/02/16 00:11:24;;;;;;;;;80.00;64.67;;;;;5.01;100.00;99521.38;6323254;20;2872169;-45
2022/02/16 00:13:56;;;;;;;;;99.00;68.00;;;;;4.83;100.00;99516.81;6322481;20;3679423;-45
2022/02/16 00:16:25;;;;;;;;;84.67;58.00;;;;;4.65;100.00;99512.22;6287389;20;3661676;-45
2022/02/16 00:18:55;;;;;;;;;92.00;66.33;;;;;4.91;100.00;99514.69;6322871;20;3659759;-43
2022/02/16 00:21:25;;;;;;;;;89.33;68.67;;;;;5.16;100.00;99514.53;6324322;20;3631517;-44
2022/02/16 00:23:55;;;;;;;;;89.00;65.00;;;;;5.27;100.00;99514.09;6323192;20;3651302;-44
2022/02/16 00:26:25;;;;;;;;;92.67;68.00;;;;;5.33;100.00;99505.84;6324208;20;3654539;-46
2022/02/16 00:28:54;;;;;;;;;84.67;62.33;;;;;5.10;100.00;99511.25;6287598;20;3641891;-45
2022/02/16 00:31:24;;;;;;;;;89.33;66.67;;;;;4.94;100.00;99511.91;6322516;20;3656611;-49
2022/02/16 00:33:54;;;;;;;;;94.33;69.00;;;;;4.87;100.00;99514.88;6323329;20;3672112;-46
2022/02/16 00:36:23;;;;;;;;;86.67;63.00;;;;;4.97;100.00;99509.09;6288981;20;3650209;-45
2022/02/16 00:38:53;;;;;;;;;82.67;60.33;;;;;5.07;100.00;99513.13;6320728;20;3636699;-45
2022/02/16 00:41:26;;;;;;;;;91.67;67.00;;;;;5.08;100.00;99508.66;6323911;20;3656598;-46
2022/02/16 00:43:55;;;;;;;;;93.00;78.00;;;;;5.05;100.00;99501.69;6289487;20;3646089;-46
2022/02/16 00:46:26;;;;;;;;;96.00;69.33;;;;;5.06;100.00;99497.22;6321533;20;3658596;-50
2022/02/16 00:48:56;;;;;;;;;84.00;65.67;;;;;5.47;100.00;99503.41;6288689;20;3627378;-45
2022/02/16 00:51:28;;;;;;;;;87.33;64.00;;;;;5.23;100.00;99496.50;6321419;20;3629386;-47
2022/02/16 00:53:58;;;;;;;;;89.00;66.33;;;;;5.26;100.00;99501.69;6322421;20;3642921;-47
2022/02/16 00:56:29;;;;;;;;;91.00;71.00;;;;;5.23;100.00;99504.50;6322533;20;3658602;-46
2022/02/16 00:58:58;;;;;;;;;91.67;66.67;;;;;5.00;100.00;99503.69;6286019;20;3647156;-45
2022/02/16 01:01:30;;;;;;;;;90.00;67.67;;;;;5.00;100.00;99497.47;6282963;20;3645051;-45
2022/02/16 01:04:00;;;;;;;;;92.33;66.67;;;;;5.06;100.00;99492.78;6316452;20;3667970;-46
2022/02/16 01:06:31;;;;;;;;;90.00;63.67;;;;;4.68;100.00;99493.47;6283421;20;3635693;-45
2022/02/16 01:09:01;;;;;;;;;95.00;72.33;;;;;4.87;100.00;99488.28;6315302;20;3665956;-46
2022/02/16 01:11:33;;;;;;;;;90.33;66.33;;;;;4.96;100.00;99483.44;6280984;20;3654813;-45
2022/02/16 01:14:03;;;;;;;;;94.33;70.33;;;;;5.04;100.00;99473.34;6282627;20;3658560;-47
2022/02/16 01:16:35;;;;;;;;;94.33;74.33;;;;;5.11;100.00;99470.41;6314796;20;3644091;-47
2022/02/16 01:19:05;;;;;;;;;84.33;66.00;;;;;5.49;100.00;99474.94;6281626;20;3617917;-46
2022/02/16 01:21:36;;;;;;;;;86.00;65.00;;;;;5.23;100.00;99484.06;6316863;20;3631464;-47
2022/02/16 01:24:06;;;;;;;;;88.33;66.00;;;;;5.24;100.00;99474.31;6316034;20;3646052;-47
2022/02/16 01:26:36;;;;;;;;;93.33;69.00;;;;;5.02;100.00;99464.53;6314454;20;3663887;-48
2022/02/16 01:29:06;;;;;;;;;92.00;66.67;;;;;4.85;100.00;99461.75;6315601;20;3652326;-47
2022/02/16 01:31:35;;;;;;;;;95.67;69.67;;;;;4.81;100.00;99465.44;6314918;20;3663156;-46
2022/02/16 01:34:05;;;;;;;;;92.00;72.67;;;;;5.12;100.00;99459.72;6279620;20;3666896;-47
2022/02/16 01:36:35;;;;;;;;;89.67;66.33;;;;;4.93;100.00;99449.00;6314465;20;3661690;-46
2022/02/16 01:39:05;;;;;;;;;88.67;64.67;;;;;4.71;100.00;99442.81;6282225;20;3647078;-46
2022/02/16 01:41:35;;;;;;;;;89.33;65.67;;;;;4.84;100.00;99444.94;6315048;20;3647082;-48
2022/02/16 01:44:05;;;;;;;;;92.67;67.33;;;;;5.03;100.00;99434.38;6314670;20;3650278;-47
2022/02/16 01:47:02;;;;;;;;;74.67;58.00;;;;;5.15;100.00;99437.41;6316216;20;2882648;-47
2022/02/16 01:49:36;;;;;;;;;92.67;68.67;;;;;5.11;100.00;99427.81;6314683;20;3659642;-46
2022/02/16 01:52:09;;;;;;;;;91.33;67.00;;;;;5.17;100.00;99424.91;6281180;20;3662716;-46
2022/02/16 01:54:39;;;;;;;;;91.00;64.33;;;;;5.27;100.00;99427.09;6281117;20;3642060;-48
2022/02/16 01:57:09;;;;;;;;;95.67;67.00;;;;;5.09;100.00;99424.41;6311488;20;3658629;-48
2022/02/16 01:59:39;;;;;;;;;97.00;74.00;;;;;4.96;100.00;99435.56;6279192;20;3665833;-47
2022/02/16 02:02:08;;;;;;;;;89.00;64.67;;;;;4.61;100.00;99453.84;6314319;20;3641033;-49
2022/02/16 02:04:38;;;;;;;;;89.33;68.67;;;;;4.79;100.00;99456.66;6312728;20;3632534;-48
2022/02/16 02:07:07;;;;;;;;;94.00;67.67;;;;;5.06;100.00;99449.34;6312253;20;3661680;-47
2022/02/16 02:09:37;;;;;;;;;93.33;70.67;;;;;5.11;100.00;99441.13;6280293;20;3661775;-48
2022/02/16 02:12:07;;;;;;;;;92.33;66.33;;;;;4.80;100.00;99426.50;6314280;20;3650229;-49
2022/02/16 02:14:37;;;;;;;;;96.33;74.33;;;;;4.67;100.00;99412.00;6314077;20;3651342;-47
2022/02/16 02:17:07;;;;;;;;;79.33;60.67;;;;;4.57;100.00;99415.00;6280912;20;3633570;-47
2022/02/16 02:19:36;;;;;;;;;95.00;69.00;;;;;4.40;100.00;99410.41;6313216;20;3664792;-47
2022/02/16 02:22:06;;;;;;;;;101.00;70.33;;;;;4.07;100.00;99404.66;6281056;20;3685737;-47
2022/02/16 02:24:36;;;;;;;;;93.67;69.00;;;;;4.42;100.00;99405.00;6283081;20;3667996;-46
2022/02/16 02:27:05;;;;;;;;;101.00;78.00;;;;;4.45;100.00;99407.56;6281509;20;3685759;-47
2022/02/16 02:29:39;;;;;;;;;98.00;68.00;;;;;4.41;100.00;99408.59;6281731;20;3551804;-47
2022/02/16 02:32:08;;;;;;;;;89.33;66.00;;;;;4.33;100.00;99400.94;6308788;20;3655428;-49
2022/02/16 02:34:38;;;;;;;;;94.67;68.33;;;;;4.55;100.00;99403.56;6313728;20;3656532;-50
2022/02/16 02:37:08;;;;;;;;;101.00;72.67;;;;;4.40;100.00;99389.16;6278815;20;3690840;-46
2022/02/16 02:39:38;;;;;;;;;85.33;64.67;;;;;3.71;100.00;99383.03;6277272;20;2886766;-47
2022/02/16 02:42:07;;;;;;;;;91.33;72.67;;;;;3.65;100.00;99376.19;6311108;20;3658552;-47
2022/02/16 02:44:37;;;;;;;;;99.33;71.00;;;;;3.71;100.00;99373.31;6314669;20;3676275;-49
2022/02/16 02:47:07;;;;;;;;;101.33;82.00;;;;;3.71;100.00;99378.63;6278569;20;3676346;-50
2022/02/16 02:49:37;;;;;;;;;97.33;68.67;;;;;3.86;100.00;99376.28;6278755;20;3675208;-50
2022/02/16 02:52:07;;;;;;;;;96.00;72.00;;;;;3.91;100.00;99366.34;6280572;20;3664807;-47
2022/02/16 02:54:36;;;;;;;;;98.33;73.00;;;;;3.82;100.00;99372.00;6279800;20;3670028;-49
2022/02/16 02:57:06;;;;;;;;;93.67;67.33;;;;;3.66;100.00;99372.63;6280173;20;3654458;-50
2022/02/16 02:59:36;;;;;;;;;97.00;69.00;;;;;3.99;100.00;99380.19;6310353;20;3646077;-48
2022/02/16 03:02:05;;;;;;;;;86.67;65.67;;;;;3.89;100.00;99384.13;6281067;20;3639856;-47
2022/02/16 03:04:35;;;;;;;;;99.67;70.00;;;;;4.10;100.00;99387.72;6313512;20;3682533;-47
2022/02/16 03:07:05;;;;;;;;;90.33;63.33;;;;;4.09;100.00;99388.66;6279639;20;3646071;-46
2022/02/16 03:09:34;;;;;;;;;92.00;67.33;;;;;4.13;100.00;99385.81;6310664;20;3647091;-47
2022/02/16 03:12:06;;;;;;;;;90.33;64.33;;;;;3.89;100.00;99384.97;6313077;20;3657628;-49
2022/02/16 03:14:37;;;;;;;;;93.33;67.67;;;;;4.07;100.00;99387.84;6310603;20;3643044;-47
2022/02/16 03:17:06;;;;;;;;;100.00;73.00;;;;;4.13;100.00;99379.63;6276248;20;3688756;-49
2022/02/16 03:19:36;;;;;;;;;104.00;78.67;;;;;4.01;100.00;99373.03;6276422;20;3693031;-48
2022/02/16 03:22:06;;;;;;;;;88.33;65.33;;;;;4.26;100.00;99377.34;6277962;20;3662527;-54
2022/02/16 03:24:36;;;;;;;;;90.50;65.00;;;;;3.94;100.00;99372.38;6310975;20;4422151;-52
2022/02/16 03:27:05;;;;;;;;;94.33;74.00;;;;;3.82;100.00;99372.88;6310759;20;3663886;-50
2022/02/16 03:29:35;;;;;;;;;97.67;68.00;;;;;3.89;100.00;99363.72;6279079;20;3680535;-49
2022/02/16 03:32:05;;;;;;;;;92.00;68.00;;;;;3.94;100.00;99361.75;6280849;20;3652313;-50
2022/02/16 03:34:35;;;;;;;;;96.00;68.67;;;;;4.01;100.00;99365.06;6312169;20;3662772;-52
2022/02/16 03:37:05;;;;;;;;;94.33;68.67;;;;;4.08;100.00;99369.19;6280154;20;3654493;-54
2022/02/16 03:39:36;;;;;;;;;127.00;112.00;;;;;4.11;100.00;99369.06;6312129;20;2818049;-52
2022/02/16 03:42:07;;;;;;;;;95.67;70.33;;;;;4.21;100.00;99379.31;6311886;20;3669071;-50
2022/02/16 03:44:36;;;;;;;;;87.33;63.00;;;;;4.55;100.00;99389.41;6279025;20;3631466;-52
2022/02/16 03:47:06;;;;;;;;;75.33;60.33;;;;;4.86;100.00;99404.94;6312682;20;2869247;-52
2022/02/16 03:49:35;;;;;;;;;93.00;68.67;;;;;4.73;100.00;99403.75;6310034;20;3647101;-49
2022/02/16 03:52:06;;;;;;;;;90.00;62.33;;;;;4.98;100.00;99403.56;6279666;20;3655657;-51
2022/02/16 03:54:35;;;;;;;;;88.67;66.33;;;;;5.04;100.00;99401.50;6311355;20;3651290;-53
2022/02/16 03:57:05;;;;;;;;;86.67;63.33;;;;;4.79;100.00;99399.03;6310216;20;3656502;-54
2022/02/16 03:59:34;;;;;;;;;85.67;65.33;;;;;5.11;100.00;99401.22;6310400;20;2882660;-49
2022/02/16 04:02:04;;;;;;;;;86.67;65.33;;;;;4.84;100.00;99406.81;6311530;20;3648270;-51
2022/02/16 04:04:34;;;;;;;;;83.00;62.00;;;;;5.12;100.00;99410.94;6311158;20;3654438;-50
2022/02/16 04:07:04;;;;;;;;;84.67;62.00;;;;;5.35;100.00;99417.94;6279988;20;3646109;-49
2022/02/16 04:09:33;;;;;;;;;90.00;62.00;;;;;5.16;99.97;99418.75;6310674;20;3660695;-51
2022/02/16 04:12:04;;;;;;;;;89.67;66.00;;;;;4.90;100.00;99433.16;6279868;20;3656581;-44
2022/02/16 04:14:33;;;;;;;;;89.67;66.00;;;;;4.92;100.00;99433.94;6312534;20;3647114;-45
2022/02/16 04:17:03;;;;;;;;;88.67;65.00;;;;;4.79;100.00;99420.31;6310623;20;3646093;-44
2022/02/16 04:19:33;;;;;;;;;92.00;67.00;;;;;5.09;100.00;99419.06;6307952;20;3660809;-42
2022/02/16 04:22:03;;;;;;;;;91.00;66.33;;;;;5.32;99.90;99413.59;6279031;20;3651301;-44
2022/02/16 04:24:32;;;;;;;;;85.33;63.00;;;;;5.21;99.78;99414.09;6311745;20;3646527;-43
2022/02/16 04:27:03;;;;;;;;;92.00;67.00;;;;;5.23;100.00;99408.69;6309219;20;3653610;-43
2022/02/16 04:29:33;;;;;;;;;87.00;62.33;;;;;5.32;99.67;99402.06;6278569;20;3639842;-45
2022/02/16 04:32:03;;;;;;;;;80.67;61.00;;;;;5.41;98.68;99412.31;6310112;20;3619226;-45
2022/02/16 04:34:33;;;;;;;;;82.33;62.00;;;;;5.14;99.24;99409.94;6305743;20;3657582;-43
2022/02/16 04:37:03;;;;;;;;;82.00;62.33;;;;;5.36;98.78;99412.50;6314750;20;2867055;-43
2022/02/16 04:39:33;;;;;;;;;81.00;62.67;;;;;5.13;99.40;99423.31;6314190;20;3624271;-44
2022/02/16 04:42:03;;;;;;;;;91.00;69.67;;;;;5.18;99.68;99423.97;6316850;20;3652339;-44
2022/02/16 04:44:33;;;;;;;;;85.33;63.33;;;;;4.76;100.00;99420.44;6284912;20;3642982;-44
2022/02/16 04:47:04;;;;;;;;;88.67;65.33;;;;;5.09;100.00;99422.59;6316196;20;3658588;-45
2022/02/16 04:49:33;;;;;;;;;86.67;64.00;;;;;5.00;100.00;99439.81;6315990;20;3632674;-41
2022/02/16 04:52:04;;;;;;;;;88.67;67.00;;;;;4.96;100.00;99429.38;6313697;20;3639882;-41
2022/02/16 04:54:36;;;;;;;;;84.00;61.33;;;;;5.03;100.00;99444.16;6314010;20;3649293;-41
2022/02/16 04:57:06;;;;;;;;;83.67;61.33;;;;;5.15;99.59;99437.41;6315533;20;3649172;-41
2022/02/16 04:59:35;;;;;;;;;85.67;63.33;;;;;5.09;100.00;99440.34;6315534;20;3629460;-41
2022/02/16 05:02:05;;;;;;;;;94.00;66.67;;;;;5.21;100.00;99437.16;6313770;20;3659790;-43
2022/02/16 05:04:35;;;;;;;;;88.67;68.33;;;;;5.23;99.39;99436.16;6315216;20;3655441;-42
2022/02/16 05:07:04;;;;;;;;;87.67;65.33;;;;;5.34;99.28;99432.16;6315287;20;3646081;-42
2022/02/16 05:09:34;;;;;;;;;93.00;69.67;;;;;5.17;99.71;99425.78;6313867;20;3657606;-41
2022/02/16 05:12:04;;;;;;;;;92.33;67.00;;;;;4.98;100.00;99423.06;6282711;20;3646079;-42
2022/02/16 05:14:37;;;;;;;;;89.33;65.33;;;;;5.30;99.48;99431.44;6314335;20;3649196;-43
2022/02/16 05:17:06;;;;;;;;;89.00;66.67;;;;;5.42;98.66;99436.19;6315055;20;3642915;-48
2022/02/16 05:19:39;;;;;;;;;84.67;63.67;;;;;5.36;99.14;99441.81;6314756;20;3636680;-43
2022/02/16 05:22:09;;;;;;;;;86.67;66.67;;;;;5.40;98.61;99438.09;6314861;20;3641890;-42
2022/02/16 05:24:39;;;;;;;;;83.00;60.00;;;;;5.49;97.94;99434.13;6317391;20;3633628;-42
2022/02/16 05:27:09;;;;;;;;;84.33;62.67;;;;;4.93;100.00;99435.69;6314213;20;3634614;-42
2022/02/16 05:29:38;;;;;;;;;94.00;70.00;;;;;4.79;100.00;99424.75;6314758;20;3673232;-42
2022/02/16 05:32:09;;;;;;;;;97.00;70.33;;;;;5.07;100.00;99425.31;6284731;20;3664793;-42
2022/02/16 05:34:38;;;;;;;;;86.33;64.67;;;;;5.35;99.21;99418.78;6283496;20;3642954;-42
2022/02/16 05:37:08;;;;;;;;;82.33;62.00;;;;;5.23;98.44;99419.31;6315087;20;3621075;-42
2022/02/16 05:39:37;;;;;;;;;88.00;60.67;;;;;5.09;98.44;99430.56;6314586;20;3652371;-43
2022/02/16 05:42:08;;;;;;;;;86.33;65.00;;;;;5.41;98.82;99434.47;6315653;20;2883810;-42
2022/02/16 05:44:38;;;;;;;;;113.67;87.00;;;;;5.46;97.72;99427.16;6315885;20;3687709;-42
2022/02/16 05:47:08;;;;;;;;;96.00;70.33;;;;;5.57;97.81;99433.78;6281790;20;3667993;-43
2022/02/16 05:49:38;;;;;;;;;82.00;62.33;;;;;5.12;99.40;99430.44;6281017;20;3638802;-42
2022/02/16 05:52:08;;;;;;;;;91.67;65.33;;;;;5.16;100.00;99433.81;6313346;20;3654387;-42
2022/02/16 05:54:37;;;;;;;;;92.33;64.67;;;;;5.13;100.00;99433.97;6313319;20;3647147;-43
2022/02/16 05:57:07;;;;;;;;;83.33;62.00;;;;;5.01;100.00;99425.59;6313487;20;3628369;-41
2022/02/16 05:59:39;;;;;;;;;85.00;62.67;;;;;5.09;100.00;99416.41;6313499;20;3634617;-43
2022/02/16 06:02:09;;;;;;;;;83.00;62.00;;;;;5.12;100.00;99410.94;6313553;20;3637728;-44
2022/02/16 06:04:41;;;;;;;;;86.67;65.00;;;;;5.15;99.87;99421.44;6315975;20;3640842;-42
2022/02/16 06:07:10;;;;;;;;;86.33;62.67;;;;;5.22;99.08;99422.94;6315660;20;3647110;-42
2022/02/16 06:09:40;;;;;;;;;86.67;62.33;;;;;5.48;97.77;99421.78;6313972;20;3650201;-42
2022/02/16 06:12:10;;;;;;;;;84.33;64.33;;;;;5.45;98.12;99425.44;6315282;20;3636668;-42
2022/02/16 06:14:39;;;;;;;;;88.33;64.67;;;;;5.15;99.29;99432.09;6315767;20;3636669;-42
2022/02/16 06:17:09;;;;;;;;;88.00;65.67;;;;;5.36;99.09;99436.47;6314815;20;3655155;-42
2022/02/16 06:19:38;;;;;;;;;82.33;59.33;;;;;5.45;98.61;99452.06;6278937;20;3655072;-42
2022/02/16 06:22:08;;;;;;;;;96.00;71.00;;;;;5.41;98.58;99450.44;6314445;20;3670054;-42
2022/02/16 06:24:38;;;;;;;;;93.67;68.00;;;;;5.47;98.83;99462.63;6281751;20;3637047;-41
2022/02/16 06:27:09;;;;;;;;;85.33;67.33;;;;;5.39;98.81;99468.28;6315415;20;2868991;-42
2022/02/16 06:29:39;;;;;;;;;88.33;65.00;;;;;5.45;99.16;99476.03;6312986;20;3645042;-42
2022/02/16 06:32:10;;;;;;;;;95.67;76.33;;;;;5.32;97.94;99477.50;6315587;20;3650237;-41
2022/02/16 06:34:40;;;;;;;;;86.00;65.33;;;;;5.57;98.28;99477.25;6279672;20;3633673;-44
2022/02/16 06:37:17;;;;;;;;;85.00;66.33;;;;;5.50;98.32;99465.16;6315898;20;3627347;-43
2022/02/16 06:39:46;;;;;;;;;84.00;63.33;;;;;5.56;97.75;99461.38;6312927;20;3642987;-42
2022/02/16 06:42:16;;;;;;;;;80.67;57.00;;;;;5.76;96.97;99474.63;6312970;20;3624314;-43
2022/02/16 06:44:46;;;;;;;;;92.00;67.33;;;;;5.44;97.73;99466.28;6311979;20;3659730;-44
2022/02/16 06:47:16;;;;;;;;;88.33;66.33;;;;;5.46;98.25;99469.75;6283484;20;3636839;-44
2022/02/16 06:49:45;;;;;;;;;88.00;65.00;;;;;5.60;98.14;99471.78;6312334;20;3644024;-45
2022/02/16 06:52:15;;;;;;;;;85.33;63.67;;;;;5.67;97.96;99472.41;6314258;20;3648198;-45
2022/02/16 06:54:45;;;;;;;;;86.33;63.33;;;;;5.65;97.96;99475.13;6310272;20;3647361;-43
2022/02/16 06:57:17;;;;;;;;;86.33;64.00;;;;;5.85;96.29;99481.38;6279261;20;3639833;-43
2022/02/16 06:59:47;;;;;;;;;85.67;62.33;;;;;5.60;97.17;99485.09;6309257;20;3636826;-45
2022/02/16 07:02:18;;;;;;;;;87.67;65.33;;;;;5.37;98.08;99486.16;6310644;20;3643954;-48
2022/02/16 07:04:48;;;;;;;;;92.33;67.00;;;;;5.69;98.08;99481.19;6313588;20;3623148;-45
2022/02/16 07:07:18;;;;;;;;;91.33;67.00;;;;;5.91;97.12;99481.94;6312235;20;3659633;-45
2022/02/16 07:09:48;;;;;;;;;89.33;67.00;;;;;5.90;96.17;99474.03;6312062;20;3665983;-45
2022/02/16 07:12:18;;;;;;;;;92.67;66.00;;;;;5.82;97.28;99478.81;6313174;20;3655473;-43
2022/02/16 07:14:50;;;;;;;;;90.67;65.33;;;;;5.94;96.43;99472.97;6314331;20;3641910;-43
2022/02/16 07:17:23;;;;;;;;;83.67;64.00;;;;;5.85;96.18;99476.88;6314168;20;3635806;-43
2022/02/16 07:19:53;;;;;;;;;90.00;68.33;;;;;6.07;95.56;99470.59;6312955;20;3640901;-45
2022/02/16 07:22:24;;;;;;;;;88.67;66.33;;;;;6.19;95.21;99470.03;6313319;20;3648300;-46
2022/02/16 07:24:53;;;;;;;;;84.33;62.33;;;;;6.08;95.61;99467.00;6313193;20;3648242;-43
2022/02/16 07:27:25;;;;;;;;;82.67;60.00;;;;;5.92;95.77;99473.03;6312661;20;3663932;-44
2022/02/16 07:29:54;;;;;;;;;93.50;66.00;;;;;6.12;95.33;99473.91;6311170;20;2843037;-44
2022/02/16 07:32:26;;;;;;;;;82.67;63.33;;;;;5.95;95.77;99477.38;6313087;20;3646077;-49
2022/02/16 07:34:56;;;;;;;;;82.67;66.33;;;;;6.16;95.07;99470.16;6311339;20;3630461;-49
2022/02/16 07:37:27;;;;;;;;;83.00;64.00;;;;;6.15;94.18;99460.44;6314173;20;2770209;-46
2022/02/16 07:39:59;;;;;;;;;83.00;65.00;;;;;6.31;94.49;99457.91;6276394;20;2868096;-48
2022/02/16 07:42:30;;;;;;;;;82.33;60.00;;;;;6.43;93.54;99456.47;6311678;20;3645047;-45
2022/02/16 07:44:59;;;;;;;;;83.67;60.00;;;;;6.09;93.82;99453.59;6312567;20;3648174;-44
2022/02/16 07:47:33;;;;;;;;;78.67;61.00;;;;;6.29;93.41;99459.78;6278842;20;3615972;-44
2022/02/16 07:50:04;;;;;;;;;78.00;60.00;;;;;6.56;93.07;99463.81;6311622;20;3637703;-46
2022/02/16 07:52:38;;;;;;;;;82.33;57.67;;;;;6.45;92.81;99449.25;6311122;20;3654448;-49
2022/02/16 07:55:08;;;;;;;;;83.00;61.00;;;;;6.27;92.95;99456.34;6312857;20;3618997;-49
2022/02/16 07:57:39;;;;;;;;;81.33;60.67;;;;;6.16;94.51;99459.50;6311905;20;3637753;-49
2022/02/16 08:00:10;;;;;;;;;77.67;59.00;;;;;6.25;93.82;99472.41;6308465;20;3637129;-45
2022/02/16 08:02:40;;;;;;;;;77.67;58.67;;;;;6.41;93.90;99469.00;6312940;20;3638907;-44
2022/02/16 08:05:09;;;;;;;;;78.67;59.33;;;;;6.11;95.04;99467.72;6280577;20;3641885;-44
2022/02/16 08:07:39;;;;;;;;;78.67;59.67;;;;;6.35;93.17;99475.50;6313105;20;3634615;-44
2022/02/16 08:10:09;;;;;;;;;83.33;61.33;;;;;6.54;92.27;99468.34;6308486;20;3653430;-44
2022/02/16 08:12:52;;;;;;;;;81.33;60.67;;;;;6.46;92.09;99477.66;6318072;20;3641018;-42
2022/02/16 08:15:26;;;;;;;;;76.33;58.00;;;;;6.58;90.42;99485.03;6283786;20;2872233;-44
2022/02/16 08:17:56;;;;;;;;;83.67;62.00;;;;;6.72;91.51;99469.25;6317722;20;3633585;-42
2022/02/16 08:20:26;;;;;;;;;78.33;60.00;;;;;6.81;91.04;99468.78;6315760;20;3604438;-43
2022/02/16 08:22:56;;;;;;;;;79.00;60.33;;;;;6.79;90.26;99462.69;6318800;20;3608650;-44
2022/02/16 08:25:26;;;;;;;;;83.67;63.33;;;;;6.98;90.26;99470.63;6316857;20;3666966;-43
2022/02/16 08:27:55;;;;;;;;;79.67;58.33;;;;;6.90;91.67;99471.91;6318410;20;3644011;-42
2022/02/16 08:30:25;;;;;;;;;80.00;61.00;;;;;7.37;90.11;99482.00;6313789;20;3625394;-44
2022/02/16 08:32:55;;;;;;;;;84.00;61.00;;;;;7.31;90.10;99475.16;6315334;20;3631553;-42
2022/02/16 08:35:26;;;;;;;;;80.00;61.00;;;;;7.02;91.67;99482.00;6316903;20;3626530;-42
2022/02/16 08:37:57;;;;;;;;;83.33;62.67;;;;;6.84;91.83;99472.25;6315266;20;3648165;-49
2022/02/16 08:40:27;;;;;;;;;83.67;62.67;;;;;7.12;93.22;99483.25;6282169;20;3651297;-51
2022/02/16 08:43:17;;;;;;;;;87.33;65.67;;;;;6.99;92.13;99480.34;6316617;20;3634695;-49
2022/02/16 08:45:47;;;;;;;;;85.67;63.00;;;;;7.44;92.41;99483.41;6318344;20;3649229;-49
2022/02/16 08:48:16;;;;;;;;;80.67;59.00;;;;;6.97;93.07;99478.69;6285112;20;3637929;-52
2022/02/16 08:50:46;;;;;;;;;86.00;64.33;;;;;7.25;92.68;99473.69;6316092;20;3643071;-52
2022/02/16 08:53:16;;;;;;;;;82.67;64.00;;;;;7.02;92.75;99464.16;6284025;20;3626359;-50
2022/02/16 08:55:45;;;;;;;;;81.00;60.67;;;;;7.33;93.28;99469.75;6314786;20;3634605;-48
2022/02/16 08:58:15;;;;;;;;;89.67;65.67;;;;;7.17;93.25;99464.34;6314471;20;3665961;-52
2022/02/16 09:00:46;;;;;;;;;87.33;63.33;;;;;7.59;92.05;99465.72;6280461;20;3648312;-51
2022/02/16 09:03:16;;;;;;;;;86.33;64.00;;;;;7.64;93.33;99458.34;6316664;20;3630511;-51
2022/02/16 09:05:47;;;;;;;;;89.67;64.67;;;;;7.78;91.69;99458.44;6313564;20;3661825;-53
2022/02/16 09:08:20;;;;;;;;;79.67;60.67;;;;;7.82;91.49;99453.78;6283305;20;3635685;-50
2022/02/16 09:10:50;;;;;;;;;75.67;57.00;;;;;7.54;91.20;99452.59;6315612;20;3640889;-49
2022/02/16 09:13:20;;;;;;;;;81.67;61.00;;;;;7.41;92.59;99451.53;6317436;20;3640840;-51
2022/02/16 09:15:49;;;;;;;;;83.00;61.00;;;;;7.66;91.43;99457.31;6280072;20;3651248;-48
2022/02/16 09:18:19;;;;;;;;;79.67;59.67;;;;;7.75;91.61;99455.94;6312044;20;3656570;-49
2022/02/16 09:20:49;;;;;;;;;84.33;60.00;;;;;7.87;91.08;99443.72;6282826;20;3654520;-50
2022/02/16 09:23:19;;;;;;;;;82.00;58.33;;;;;7.63;92.64;99444.09;6312818;20;3641937;-51
2022/02/16 09:25:51;;;;;;;;;82.00;62.33;;;;;7.45;93.44;99440.59;6313252;20;3629380;-50
2022/02/16 09:28:20;;;;;;;;;86.33;62.00;;;;;8.01;91.88;99449.19;6314541;20;3651266;-49
2022/02/16 09:30:51;;;;;;;;;82.67;60.00;;;;;7.79;92.23;99451.28;6298245;20;3645029;-50
2022/02/16 09:33:23;;;;;;;;;78.00;59.00;;;;;7.92;91.42;99449.66;6282778;20;2860855;-50
2022/02/16 09:35:56;;;;;;;;;76.00;57.00;;;;;7.95;92.06;99451.31;6315438;20;3624215;-50
2022/02/16 09:38:25;;;;;;;;;73.33;58.00;;;;;8.05;90.23;99452.53;6312575;20;2870784;-53
2022/02/16 09:40:56;;;;;;;;;74.67;56.67;;;;;8.00;90.42;99466.16;6317174;20;3637770;-53
2022/02/16 09:43:27;;;;;;;;;76.33;54.67;;;;;8.09;90.68;99465.66;6315629;20;3642956;-50
2022/02/16 09:45:59;;;;;;;;;80.00;59.00;;;;;7.47;91.77;99462.75;6314884;20;3632631;-53
2022/02/16 09:48:33;;;;;;;;;78.33;57.33;;;;;7.91;91.06;99462.19;6314453;20;3646055;-52
2022/02/16 09:51:02;;;;;;;;;79.33;57.33;;;;;7.98;91.27;99468.06;6314927;20;3646037;-54
2022/02/16 09:53:32;;;;;;;;;75.00;56.67;;;;;7.90;92.63;99465.81;6280577;20;3634673;-50
2022/02/16 09:56:03;;;;;;;;;78.00;58.33;;;;;7.95;91.49;99465.53;6310976;20;3641927;-49
2022/02/16 09:58:33;;;;;;;;;82.67;57.33;;;;;8.01;90.86;99461.69;6316325;20;3662755;-51
2022/02/16 10:01:16;;;;;;;;;77.00;54.67;;;;;7.86;90.95;99469.59;6279147;20;3651263;-50
2022/02/16 10:04:09;;;;;;;;;83.67;57.00;;;;;7.82;91.91;99475.16;6314923;20;3657583;-54
2022/02/16 10:06:48;;;;;;;;;83.33;59.67;;;;;7.83;92.13;99468.91;6282773;20;3651283;-49
2022/02/16 10:09:38;;;;;;;;;80.67;61.00;;;;;7.95;91.49;99473.56;6314098;20;3643071;-50
2022/02/16 10:12:11;;;;;;;;;84.67;61.00;;;;;8.21;90.82;99472.13;6316430;20;3650294;-54
2022/02/16 10:14:41;;;;;;;;;70.00;52.33;;;;;8.35;90.01;99466.91;6282913;20;3642928;-50
2022/02/16 10:17:27;;;;;;;;;71.00;53.00;;;;;8.32;88.59;99467.06;6313511;20;2770134;-51
2022/02/16 10:20:04;;;;;;;;;64.33;48.67;;;;;8.66;87.50;99458.97;6279822;20;3641908;-45
2022/02/16 10:22:39;;;;;;;;;60.00;43.67;;;;;8.50;86.28;99459.84;6314655;20;3636696;-47
2022/02/16 10:25:32;;;;;;;;;63.67;48.33;;;;;8.35;87.45;99441.97;6313712;20;3636734;-48
2022/02/16 10:28:15;;;;;;;;;50.00;39.00;;;;;8.72;87.65;99442.56;6314762;20;2859650;-48
2022/02/16 10:31:07;;;;;;;;;61.00;45.00;;;;;8.71;87.21;99435.47;6284227;20;2867967;-47
2022/02/16 10:33:43;;;;;;;;;58.33;45.33;;;;;8.21;87.55;99437.38;6314268;20;2863026;-48
2022/02/16 10:36:23;;;;;;;;;63.33;46.67;;;;;8.76;86.50;99444.09;6313028;20;3626302;-47
2022/02/16 10:39:11;;;;;;;;;53.00;41.00;;;;;8.67;87.48;99431.28;6313628;20;2871154;-46
2022/02/16 10:41:58;;;;;;;;;62.67;48.33;;;;;8.47;87.36;99421.69;6313272;20;3632515;-44
2022/02/16 10:44:33;;;;;;;;;64.00;52.67;;;;;8.38;86.13;99431.09;6311614;20;2871243;-47
2022/02/16 10:47:10;;;;;;;;;65.00;50.67;;;;;8.41;87.80;99427.41;6314094;20;3627311;-47
2022/02/16 10:49:47;;;;;;;;;55.00;41.50;;;;;8.32;87.77;99423.38;6310225;20;2860748;-46
2022/02/16 10:52:21;;;;;;;;;49.33;40.00;;;;;8.54;87.25;99431.97;6282114;20;2869022;-47
2022/02/16 10:54:58;;;;;;;;;49.33;41.33;;;;;8.74;85.84;99424.59;6314511;20;2857529;-46
2022/02/16 10:57:28;;;;;;;;;57.00;46.00;;;;;8.94;85.33;99418.06;6311305;20;2852450;-47
2022/02/16 10:59:58;;;;;;;;;44.00;36.33;;;;;8.97;84.71;99409.84;6280895;20;3609692;-45
2022/02/16 11:02:29;;;;;;;;;58.67;44.67;;;;;9.49;83.39;99411.22;6312423;20;3628417;-46
2022/02/16 11:04:59;;;;;;;;;38.33;31.00;;;;;9.47;83.10;99402.41;6312047;20;3604416;-46
2022/02/16 11:07:33;;;;;;;;;37.67;32.00;;;;;9.17;83.54;99387.25;6310093;20;2862857;-45
2022/02/16 11:10:06;;;;;;;;;35.33;27.33;;;;;9.36;82.72;99385.16;6313576;20;3593965;-49
2022/02/16 11:12:37;;;;;;;;;32.33;25.00;;;;;9.58;82.51;99389.19;6278698;20;2856706;-45
2022/02/16 11:15:07;;;;;;;;;40.67;35.67;;;;;9.49;82.29;99384.41;6309770;20;3601435;-44
2022/02/16 11:17:37;;;;;;;;;30.00;26.00;;;;;9.78;81.37;99386.13;6308673;20;2847157;-49
2022/02/16 11:20:26;;;;;;;;;32.00;30.50;;;;;9.89;80.08;99380.06;6276677;20;2851313;-43
2022/02/16 11:23:00;;;;;;;;;36.00;27.67;;;;;10.13;78.25;99377.63;6283499;20;2855563;-49